sensor_id;sensor_type;location;lat;lon;timestamp;temperature;humidity
44843;DHT22;31884;52.538;13.820;2023-04-16T00:01:21;9.80;99.90
44843;DHT22;31884;52.538;13.820;2023-04-16T00:03:46;9.70;99.90
44843;DHT22;31884;52.538;13.820;2023-04-16T00:06:12;9.70;99.90
44843;DHT22;31884;52.538;13.820;2023-04-16T00:08:38;9.70;99.90
44843;DHT22;31884;52.538;13.820;2023-04-16T00:11:04;9.70;99.90
44843;DHT22;31884;52.538;13.820;2023-04-16T00:13:30;9.70;99.90
44843;DHT22;31884;52.538;13.820;2023-04-16T00:15:55;9.70;99.90
44843;DHT22;31884;52.538;13.820;2023-04-16T00:18:21;9.70;99.90
44843;DHT22;31884;52.538;13.820;2023-04-16T00:20:47;9.70;99.90
44843;DHT22;31884;52.538;13.820;2023-04-16T00:23:12;9.70;99.90
44843;DHT22;31884;52.538;13.820;2023-04-16T00:25:38;9.70;99.90
44843;DHT22;31884;52.538;13.820;2023-04-16T00:28:04;9.70;99.90
44843;DHT22;31884;52.538;13.820;2023-04-16T00:30:30;9.70;99.90
44843;DHT22;31884;52.538;13.820;2023-04-16T00:32:55;9.60;99.90
44843;DHT22;31884;52.538;13.820;2023-04-16T00:35:21;9.70;99.90
44843;DHT22;31884;52.538;13.820;2023-04-16T00:37:46;9.60;99.90
44843;DHT22;31884;52.538;13.820;2023-04-16T00:40:12;9.70;99.90
44843;DHT22;31884;52.538;13.820;2023-04-16T00:42:37;9.70;99.90
44843;DHT22;31884;52.538;13.820;2023-04-16T00:45:04;9.70;99.90
44843;DHT22;31884;52.538;13.820;2023-04-16T00:47:30;9.70;99.90
44843;DHT22;31884;52.538;13.820;2023-04-16T00:49:55;9.70;99.90
44843;DHT22;31884;52.538;13.820;2023-04-16T00:52:21;9.70;99.90
44843;DHT22;31884;52.538;13.820;2023-04-16T00:54:47;9.70;99.90
44843;DHT22;31884;52.538;13.820;2023-04-16T00:57:13;9.70;99.90
44843;DHT22;31884;52.538;13.820;2023-04-16T00:59:40;9.70;99.90
44843;DHT22;31884;52.538;13.820;2023-04-16T01:02:06;9.70;99.90
44843;DHT22;31884;52.538;13.820;2023-04-16T01:04:31;9.70;99.90
44843;DHT22;31884;52.538;13.820;2023-04-16T01:06:58;9.80;99.90
44843;DHT22;31884;52.538;13.820;2023-04-16T01:09:24;9.80;99.90
44843;DHT22;31884;52.538;13.820;2023-04-16T01:11:49;9.80;99.90
44843;DHT22;31884;52.538;13.820;2023-04-16T01:14:15;9.80;99.90
44843;DHT22;31884;52.538;13.820;2023-04-16T01:16:40;9.70;99.90
44843;DHT22;31884;52.538;13.820;2023-04-16T01:19:06;9.80;99.90
44843;DHT22;31884;52.538;13.820;2023-04-16T01:21:31;9.80;99.90
44843;DHT22;31884;52.538;13.820;2023-04-16T01:24:00;9.80;99.90
44843;DHT22;31884;52.538;13.820;2023-04-16T01:26:26;9.80;99.90
44843;DHT22;31884;52.538;13.820;2023-04-16T01:28:51;9.80;99.90
44843;DHT22;31884;52.538;13.820;2023-04-16T01:31:17;9.80;99.90
44843;DHT22;31884;52.538;13.820;2023-04-16T01:33:42;9.70;99.90
44843;DHT22;31884;52.538;13.820;2023-04-16T01:36:08;9.80;99.90
44843;DHT22;31884;52.538;13.820;2023-04-16T01:38:33;9.80;99.90
44843;DHT22;31884;52.538;13.820;2023-04-16T01:40:59;9.70;99.90
44843;DHT22;31884;52.538;13.820;2023-04-16T01:43:24;9.80;99.90
44843;DHT22;31884;52.538;13.820;2023-04-16T01:45:50;9.80;99.90
44843;DHT22;31884;52.538;13.820;2023-04-16T01:48:16;9.70;99.90
44843;DHT22;31884;52.538;13.820;2023-04-16T01:50:42;9.70;99.90
44843;DHT22;31884;52.538;13.820;2023-04-16T01:53:07;9.80;99.90
44843;DHT22;31884;52.538;13.820;2023-04-16T01:55:33;9.80;99.90
44843;DHT22;31884;52.538;13.820;2023-04-16T01:57:59;9.80;99.90
44843;DHT22;31884;52.538;13.820;2023-04-16T02:00:25;9.70;99.90
44843;DHT22;31884;52.538;13.820;2023-04-16T02:02:50;9.70;99.90
44843;DHT22;31884;52.538;13.820;2023-04-16T02:05:16;9.80;99.90
44843;DHT22;31884;52.538;13.820;2023-04-16T02:07:41;9.70;99.90
44843;DHT22;31884;52.538;13.820;2023-04-16T02:10:07;9.70;99.90
44843;DHT22;31884;52.538;13.820;2023-04-16T02:12:34;9.70;99.90
44843;DHT22;31884;52.538;13.820;2023-04-16T02:15:00;9.70;99.90
44843;DHT22;31884;52.538;13.820;2023-04-16T02:17:25;9.80;99.90
44843;DHT22;31884;52.538;13.820;2023-04-16T02:19:51;9.70;99.90
44843;DHT22;31884;52.538;13.820;2023-04-16T02:22:17;9.70;99.90
44843;DHT22;31884;52.538;13.820;2023-04-16T02:24:42;9.70;99.90
44843;DHT22;31884;52.538;13.820;2023-04-16T02:27:08;9.70;99.90
44843;DHT22;31884;52.538;13.820;2023-04-16T02:29:33;9.70;99.90
44843;DHT22;31884;52.538;13.820;2023-04-16T02:31:59;9.70;99.90
44843;DHT22;31884;52.538;13.820;2023-04-16T02:34:24;9.70;99.90
44843;DHT22;31884;52.538;13.820;2023-04-16T02:36:50;9.70;99.90
44843;DHT22;31884;52.538;13.820;2023-04-16T02:39:15;9.70;99.90
44843;DHT22;31884;52.538;13.820;2023-04-16T02:41:41;9.70;99.90
44843;DHT22;31884;52.538;13.820;2023-04-16T02:44:06;9.70;99.90
44843;DHT22;31884;52.538;13.820;2023-04-16T02:46:32;9.70;99.90
44843;DHT22;31884;52.538;13.820;2023-04-16T02:48:57;9.80;99.90
44843;DHT22;31884;52.538;13.820;2023-04-16T02:51:23;9.70;99.90
44843;DHT22;31884;52.538;13.820;2023-04-16T02:53:48;9.70;99.90
44843;DHT22;31884;52.538;13.820;2023-04-16T02:56:14;9.70;99.90
44843;DHT22;31884;52.538;13.820;2023-04-16T02:58:39;9.80;99.90
44843;DHT22;31884;52.538;13.820;2023-04-16T03:01:05;9.80;99.90
44843;DHT22;31884;52.538;13.820;2023-04-16T03:03:30;9.80;99.90
44843;DHT22;31884;52.538;13.820;2023-04-16T03:05:56;9.80;99.90
44843;DHT22;31884;52.538;13.820;2023-04-16T03:08:21;9.80;99.90
44843;DHT22;31884;52.538;13.820;2023-04-16T03:10:47;9.80;99.90
44843;DHT22;31884;52.538;13.820;2023-04-16T03:13:12;9.80;99.90
44843;DHT22;31884;52.538;13.820;2023-04-16T03:15:38;9.80;99.90
44843;DHT22;31884;52.538;13.820;2023-04-16T03:18:04;9.80;99.90
44843;DHT22;31884;52.538;13.820;2023-04-16T03:20:29;9.80;99.90
44843;DHT22;31884;52.538;13.820;2023-04-16T03:22:55;9.80;99.90
44843;DHT22;31884;52.538;13.820;2023-04-16T03:25:21;9.80;99.90
44843;DHT22;31884;52.538;13.820;2023-04-16T03:27:47;9.80;99.90
44843;DHT22;31884;52.538;13.820;2023-04-16T03:30:13;9.80;99.90
44843;DHT22;31884;52.538;13.820;2023-04-16T03:32:39;9.80;99.90
44843;DHT22;31884;52.538;13.820;2023-04-16T03:35:05;9.90;99.90
44843;DHT22;31884;52.538;13.820;2023-04-16T03:37:31;9.80;99.90
44843;DHT22;31884;52.538;13.820;2023-04-16T03:39:56;9.80;99.90
44843;DHT22;31884;52.538;13.820;2023-04-16T03:42:22;9.90;99.90
44843;DHT22;31884;52.538;13.820;2023-04-16T03:44:48;9.90;99.90
44843;DHT22;31884;52.538;13.820;2023-04-16T03:47:13;9.90;99.90
44843;DHT22;31884;52.538;13.820;2023-04-16T03:49:38;9.80;99.90
44843;DHT22;31884;52.538;13.820;2023-04-16T03:52:04;9.80;99.90
44843;DHT22;31884;52.538;13.820;2023-04-16T03:54:30;9.80;99.90
44843;DHT22;31884;52.538;13.820;2023-04-16T03:56:55;9.80;99.90
44843;DHT22;31884;52.538;13.820;2023-04-16T03:59:21;9.80;99.90
44843;DHT22;31884;52.538;13.820;2023-04-16T04:01:46;9.80;99.90
44843;DHT22;31884;52.538;13.820;2023-04-16T04:04:12;9.80;99.90
44843;DHT22;31884;52.538;13.820;2023-04-16T04:06:37;9.80;99.90
44843;DHT22;31884;52.538;13.820;2023-04-16T04:09:03;9.80;99.90
44843;DHT22;31884;52.538;13.820;2023-04-16T04:11:29;9.70;99.90
44843;DHT22;31884;52.538;13.820;2023-04-16T04:13:54;9.70;99.90
44843;DHT22;31884;52.538;13.820;2023-04-16T04:16:19;9.60;99.90
44843;DHT22;31884;52.538;13.820;2023-04-16T04:18:45;9.60;99.90
44843;DHT22;31884;52.538;13.820;2023-04-16T04:21:11;9.50;99.90
44843;DHT22;31884;52.538;13.820;2023-04-16T04:23:36;9.50;99.90
44843;DHT22;31884;52.538;13.820;2023-04-16T04:26:02;9.50;99.90
44843;DHT22;31884;52.538;13.820;2023-04-16T04:28:30;9.50;99.90
44843;DHT22;31884;52.538;13.820;2023-04-16T04:30:57;9.50;99.90
44843;DHT22;31884;52.538;13.820;2023-04-16T04:33:23;9.60;99.90
44843;DHT22;31884;52.538;13.820;2023-04-16T04:35:48;9.60;99.90
44843;DHT22;31884;52.538;13.820;2023-04-16T04:38:14;9.60;99.90
44843;DHT22;31884;52.538;13.820;2023-04-16T04:40:44;9.60;99.90
44843;DHT22;31884;52.538;13.820;2023-04-16T04:43:09;9.60;99.90
44843;DHT22;31884;52.538;13.820;2023-04-16T04:45:35;9.60;99.90
44843;DHT22;31884;52.538;13.820;2023-04-16T04:48:00;9.60;99.90
44843;DHT22;31884;52.538;13.820;2023-04-16T04:50:26;9.60;99.90
44843;DHT22;31884;52.538;13.820;2023-04-16T04:52:51;9.60;99.90
44843;DHT22;31884;52.538;13.820;2023-04-16T04:55:17;9.60;99.90
44843;DHT22;31884;52.538;13.820;2023-04-16T04:57:42;9.60;99.90
44843;DHT22;31884;52.538;13.820;2023-04-16T05:00:08;9.70;99.90
44843;DHT22;31884;52.538;13.820;2023-04-16T05:02:34;9.70;99.90
44843;DHT22;31884;52.538;13.820;2023-04-16T05:04:59;9.70;99.90
44843;DHT22;31884;52.538;13.820;2023-04-16T05:07:25;9.70;99.90
44843;DHT22;31884;52.538;13.820;2023-04-16T05:09:50;9.70;99.90
44843;DHT22;31884;52.538;13.820;2023-04-16T05:12:16;9.70;99.90
44843;DHT22;31884;52.538;13.820;2023-04-16T05:14:42;9.70;99.90
44843;DHT22;31884;52.538;13.820;2023-04-16T05:17:07;9.70;99.90
44843;DHT22;31884;52.538;13.820;2023-04-16T05:19:35;9.70;99.90
44843;DHT22;31884;52.538;13.820;2023-04-16T05:22:00;9.70;99.90
44843;DHT22;31884;52.538;13.820;2023-04-16T05:24:27;9.70;99.90
44843;DHT22;31884;52.538;13.820;2023-04-16T05:26:52;9.70;99.90
44843;DHT22;31884;52.538;13.820;2023-04-16T05:29:17;9.80;99.90
44843;DHT22;31884;52.538;13.820;2023-04-16T05:31:43;9.80;99.90
44843;DHT22;31884;52.538;13.820;2023-04-16T05:34:09;9.80;99.90
44843;DHT22;31884;52.538;13.820;2023-04-16T05:36:35;9.80;99.90
44843;DHT22;31884;52.538;13.820;2023-04-16T05:39:01;9.90;99.90
44843;DHT22;31884;52.538;13.820;2023-04-16T05:41:26;9.90;99.90
44843;DHT22;31884;52.538;13.820;2023-04-16T05:43:52;9.80;99.90
44843;DHT22;31884;52.538;13.820;2023-04-16T05:46:17;9.80;99.90
44843;DHT22;31884;52.538;13.820;2023-04-16T05:48:43;9.90;99.90
44843;DHT22;31884;52.538;13.820;2023-04-16T05:51:08;9.90;99.90
44843;DHT22;31884;52.538;13.820;2023-04-16T05:53:33;9.90;99.90
44843;DHT22;31884;52.538;13.820;2023-04-16T05:55:59;9.90;99.90
44843;DHT22;31884;52.538;13.820;2023-04-16T05:58:24;9.80;99.90
44843;DHT22;31884;52.538;13.820;2023-04-16T06:00:50;9.80;99.90
44843;DHT22;31884;52.538;13.820;2023-04-16T06:03:16;9.80;99.90
44843;DHT22;31884;52.538;13.820;2023-04-16T06:05:43;9.80;99.90
44843;DHT22;31884;52.538;13.820;2023-04-16T06:08:08;9.70;99.90
44843;DHT22;31884;52.538;13.820;2023-04-16T06:10:34;9.70;99.90
44843;DHT22;31884;52.538;13.820;2023-04-16T06:13:00;9.70;99.90
44843;DHT22;31884;52.538;13.820;2023-04-16T06:15:25;9.70;99.90
44843;DHT22;31884;52.538;13.820;2023-04-16T06:17:50;9.70;99.90
44843;DHT22;31884;52.538;13.820;2023-04-16T06:20:16;9.70;99.90
44843;DHT22;31884;52.538;13.820;2023-04-16T06:22:41;9.70;99.90
44843;DHT22;31884;52.538;13.820;2023-04-16T06:25:07;9.70;99.90
44843;DHT22;31884;52.538;13.820;2023-04-16T06:27:33;9.70;99.90
44843;DHT22;31884;52.538;13.820;2023-04-16T06:29:58;9.70;99.90
44843;DHT22;31884;52.538;13.820;2023-04-16T06:32:24;9.80;99.90
44843;DHT22;31884;52.538;13.820;2023-04-16T06:34:49;9.80;99.90
44843;DHT22;31884;52.538;13.820;2023-04-16T06:37:15;9.80;99.90
44843;DHT22;31884;52.538;13.820;2023-04-16T06:39:41;9.80;99.90
44843;DHT22;31884;52.538;13.820;2023-04-16T06:42:06;9.80;99.90
44843;DHT22;31884;52.538;13.820;2023-04-16T06:44:32;9.80;99.90
44843;DHT22;31884;52.538;13.820;2023-04-16T06:46:57;9.80;99.90
44843;DHT22;31884;52.538;13.820;2023-04-16T06:49:23;9.80;99.90
44843;DHT22;31884;52.538;13.820;2023-04-16T06:51:48;9.80;99.90
44843;DHT22;31884;52.538;13.820;2023-04-16T06:54:14;9.80;99.90
44843;DHT22;31884;52.538;13.820;2023-04-16T06:56:40;9.80;99.90
44843;DHT22;31884;52.538;13.820;2023-04-16T06:59:06;9.90;99.90
44843;DHT22;31884;52.538;13.820;2023-04-16T07:01:31;9.90;99.90
44843;DHT22;31884;52.538;13.820;2023-04-16T07:03:57;9.90;99.90
44843;DHT22;31884;52.538;13.820;2023-04-16T07:06:23;9.90;99.90
44843;DHT22;31884;52.538;13.820;2023-04-16T07:08:48;9.90;99.90
44843;DHT22;31884;52.538;13.820;2023-04-16T07:11:14;10.00;99.90
44843;DHT22;31884;52.538;13.820;2023-04-16T07:13:39;10.10;99.90
44843;DHT22;31884;52.538;13.820;2023-04-16T07:16:05;10.10;99.90
44843;DHT22;31884;52.538;13.820;2023-04-16T07:18:30;10.20;99.90
44843;DHT22;31884;52.538;13.820;2023-04-16T07:20:56;10.30;99.90
44843;DHT22;31884;52.538;13.820;2023-04-16T07:23:22;10.30;99.90
44843;DHT22;31884;52.538;13.820;2023-04-16T07:25:47;10.30;99.90
44843;DHT22;31884;52.538;13.820;2023-04-16T07:28:13;10.40;99.90
44843;DHT22;31884;52.538;13.820;2023-04-16T07:30:40;10.40;99.90
44843;DHT22;31884;52.538;13.820;2023-04-16T07:33:06;10.30;99.90
44843;DHT22;31884;52.538;13.820;2023-04-16T07:35:31;10.30;99.90
44843;DHT22;31884;52.538;13.820;2023-04-16T07:37:57;10.30;99.90
44843;DHT22;31884;52.538;13.820;2023-04-16T07:40:23;10.30;99.90
44843;DHT22;31884;52.538;13.820;2023-04-16T07:42:49;10.30;99.90
44843;DHT22;31884;52.538;13.820;2023-04-16T07:45:14;10.30;99.90
44843;DHT22;31884;52.538;13.820;2023-04-16T07:47:40;10.30;99.90
44843;DHT22;31884;52.538;13.820;2023-04-16T07:50:06;10.30;99.90
44843;DHT22;31884;52.538;13.820;2023-04-16T07:52:32;10.30;99.90
44843;DHT22;31884;52.538;13.820;2023-04-16T07:54:57;10.40;99.90
44843;DHT22;31884;52.538;13.820;2023-04-16T07:57:23;10.30;99.90
44843;DHT22;31884;52.538;13.820;2023-04-16T07:59:48;10.30;99.90
44843;DHT22;31884;52.538;13.820;2023-04-16T08:02:15;10.20;99.90
44843;DHT22;31884;52.538;13.820;2023-04-16T08:04:43;10.20;99.90
44843;DHT22;31884;52.538;13.820;2023-04-16T08:07:09;10.30;99.90
44843;DHT22;31884;52.538;13.820;2023-04-16T08:09:35;10.30;99.90
44843;DHT22;31884;52.538;13.820;2023-04-16T08:12:01;10.30;99.90
44843;DHT22;31884;52.538;13.820;2023-04-16T08:14:26;10.40;99.90
44843;DHT22;31884;52.538;13.820;2023-04-16T08:16:52;10.50;99.90
44843;DHT22;31884;52.538;13.820;2023-04-16T08:19:17;10.60;99.90
44843;DHT22;31884;52.538;13.820;2023-04-16T08:21:43;10.60;99.90
44843;DHT22;31884;52.538;13.820;2023-04-16T08:24:08;10.70;99.90
44843;DHT22;31884;52.538;13.820;2023-04-16T08:26:34;10.70;99.90
44843;DHT22;31884;52.538;13.820;2023-04-16T08:28:59;10.70;99.90
44843;DHT22;31884;52.538;13.820;2023-04-16T08:31:25;10.50;99.90
44843;DHT22;31884;52.538;13.820;2023-04-16T08:33:50;10.50;99.90
44843;DHT22;31884;52.538;13.820;2023-04-16T08:36:16;10.50;99.90
44843;DHT22;31884;52.538;13.820;2023-04-16T08:38:41;10.50;99.90
44843;DHT22;31884;52.538;13.820;2023-04-16T08:41:10;10.40;99.90
44843;DHT22;31884;52.538;13.820;2023-04-16T08:43:37;10.30;99.90
44843;DHT22;31884;52.538;13.820;2023-04-16T08:46:04;10.30;99.90
44843;DHT22;31884;52.538;13.820;2023-04-16T08:48:33;10.30;99.90
44843;DHT22;31884;52.538;13.820;2023-04-16T08:51:00;10.30;99.90
44843;DHT22;31884;52.538;13.820;2023-04-16T08:53:35;10.30;99.90
44843;DHT22;31884;52.538;13.820;2023-04-16T08:56:08;10.50;99.90
44843;DHT22;31884;52.538;13.820;2023-04-16T08:58:36;10.70;99.90
44843;DHT22;31884;52.538;13.820;2023-04-16T09:01:03;10.90;99.90
44843;DHT22;31884;52.538;13.820;2023-04-16T09:03:30;11.00;99.90
44843;DHT22;31884;52.538;13.820;2023-04-16T09:05:57;11.10;99.90
44843;DHT22;31884;52.538;13.820;2023-04-16T09:08:25;11.30;99.90
44843;DHT22;31884;52.538;13.820;2023-04-16T09:10:50;11.50;99.90
44843;DHT22;31884;52.538;13.820;2023-04-16T09:13:17;11.50;99.90
44843;DHT22;31884;52.538;13.820;2023-04-16T09:15:45;11.50;99.90
44843;DHT22;31884;52.538;13.820;2023-04-16T09:18:11;11.40;99.90
44843;DHT22;31884;52.538;13.820;2023-04-16T09:20:37;11.30;99.90
44843;DHT22;31884;52.538;13.820;2023-04-16T09:23:03;11.40;99.90
44843;DHT22;31884;52.538;13.820;2023-04-16T09:25:32;11.30;99.90
44843;DHT22;31884;52.538;13.820;2023-04-16T09:27:59;11.30;99.90
44843;DHT22;31884;52.538;13.820;2023-04-16T09:30:26;11.30;99.90
44843;DHT22;31884;52.538;13.820;2023-04-16T09:33:12;11.50;99.90
44843;DHT22;31884;52.538;13.820;2023-04-16T09:35:51;11.60;99.90
44843;DHT22;31884;52.538;13.820;2023-04-16T09:38:18;11.80;99.90
44843;DHT22;31884;52.538;13.820;2023-04-16T09:40:43;12.00;99.90
44843;DHT22;31884;52.538;13.820;2023-04-16T09:43:16;12.30;99.90
44843;DHT22;31884;52.538;13.820;2023-04-16T09:45:53;12.30;99.90
44843;DHT22;31884;52.538;13.820;2023-04-16T09:48:31;12.30;99.90
44843;DHT22;31884;52.538;13.820;2023-04-16T09:50:58;12.40;99.90
44843;DHT22;31884;52.538;13.820;2023-04-16T09:53:25;12.40;99.90
44843;DHT22;31884;52.538;13.820;2023-04-16T09:56:01;12.30;99.90
44843;DHT22;31884;52.538;13.820;2023-04-16T09:58:27;12.50;99.90
44843;DHT22;31884;52.538;13.820;2023-04-16T10:01:00;12.40;99.90
44843;DHT22;31884;52.538;13.820;2023-04-16T10:03:33;12.40;99.90
44843;DHT22;31884;52.538;13.820;2023-04-16T10:06:00;12.40;99.90
44843;DHT22;31884;52.538;13.820;2023-04-16T10:08:27;12.20;99.90
44843;DHT22;31884;52.538;13.820;2023-04-16T10:10:53;12.00;99.90
44843;DHT22;31884;52.538;13.820;2023-04-16T10:13:20;12.00;99.90
44843;DHT22;31884;52.538;13.820;2023-04-16T10:15:45;12.10;99.90
44843;DHT22;31884;52.538;13.820;2023-04-16T10:18:13;12.20;99.90
44843;DHT22;31884;52.538;13.820;2023-04-16T10:20:39;12.50;99.90
44843;DHT22;31884;52.538;13.820;2023-04-16T10:23:05;12.70;99.90
44843;DHT22;31884;52.538;13.820;2023-04-16T10:25:31;12.90;99.90
44843;DHT22;31884;52.538;13.820;2023-04-16T10:27:57;12.90;99.90
44843;DHT22;31884;52.538;13.820;2023-04-16T10:30:25;12.90;99.90
44843;DHT22;31884;52.538;13.820;2023-04-16T10:32:51;13.00;99.90
44843;DHT22;31884;52.538;13.820;2023-04-16T10:35:20;12.90;99.90
44843;DHT22;31884;52.538;13.820;2023-04-16T10:37:46;13.10;99.90
44843;DHT22;31884;52.538;13.820;2023-04-16T10:42:57;13.40;99.90
44843;DHT22;31884;52.538;13.820;2023-04-16T10:45:29;13.60;99.90
44843;DHT22;31884;52.538;13.820;2023-04-16T10:47:56;13.70;99.90
44843;DHT22;31884;52.538;13.820;2023-04-16T10:50:22;13.80;99.90
44843;DHT22;31884;52.538;13.820;2023-04-16T10:52:48;13.80;99.90
44843;DHT22;31884;52.538;13.820;2023-04-16T10:55:16;13.60;99.90
44843;DHT22;31884;52.538;13.820;2023-04-16T10:57:41;13.60;99.90
44843;DHT22;31884;52.538;13.820;2023-04-16T11:00:25;13.70;99.90
44843;DHT22;31884;52.538;13.820;2023-04-16T11:02:53;13.90;99.90
44843;DHT22;31884;52.538;13.820;2023-04-16T11:05:23;13.80;99.90
44843;DHT22;31884;52.538;13.820;2023-04-16T11:07:48;13.50;99.90
44843;DHT22;31884;52.538;13.820;2023-04-16T11:10:14;13.30;99.90
44843;DHT22;31884;52.538;13.820;2023-04-16T11:12:41;13.00;99.90
44843;DHT22;31884;52.538;13.820;2023-04-16T11:15:11;12.70;99.90
44843;DHT22;31884;52.538;13.820;2023-04-16T11:17:49;12.40;99.90
44843;DHT22;31884;52.538;13.820;2023-04-16T11:20:23;12.20;99.90
44843;DHT22;31884;52.538;13.820;2023-04-16T11:22:50;12.20;99.90
44843;DHT22;31884;52.538;13.820;2023-04-16T11:27:46;12.10;99.90
44843;DHT22;31884;52.538;13.820;2023-04-16T11:30:12;12.00;99.90
44843;DHT22;31884;52.538;13.820;2023-04-16T11:32:38;12.00;99.90
44843;DHT22;31884;52.538;13.820;2023-04-16T11:35:17;12.00;99.90
44843;DHT22;31884;52.538;13.820;2023-04-16T11:37:44;12.00;99.90
44843;DHT22;31884;52.538;13.820;2023-04-16T11:40:10;12.00;99.90
44843;DHT22;31884;52.538;13.820;2023-04-16T11:42:37;12.00;99.90
44843;DHT22;31884;52.538;13.820;2023-04-16T11:45:06;11.80;99.90
44843;DHT22;31884;52.538;13.820;2023-04-16T11:47:41;11.80;99.90
44843;DHT22;31884;52.538;13.820;2023-04-16T11:50:21;11.80;99.90
44843;DHT22;31884;52.538;13.820;2023-04-16T11:52:48;11.70;99.90
44843;DHT22;31884;52.538;13.820;2023-04-16T11:55:14;11.60;99.90
44843;DHT22;31884;52.538;13.820;2023-04-16T11:57:39;11.50;99.90
44843;DHT22;31884;52.538;13.820;2023-04-16T12:00:05;11.50;99.90
44843;DHT22;31884;52.538;13.820;2023-04-16T12:02:38;11.50;99.90
44843;DHT22;31884;52.538;13.820;2023-04-16T12:05:27;11.40;99.90
44843;DHT22;31884;52.538;13.820;2023-04-16T12:07:55;11.50;99.90
44843;DHT22;31884;52.538;13.820;2023-04-16T12:10:21;11.50;99.90
44843;DHT22;31884;52.538;13.820;2023-04-16T12:12:46;11.60;99.90
44843;DHT22;31884;52.538;13.820;2023-04-16T12:15:12;11.50;99.90
44843;DHT22;31884;52.538;13.820;2023-04-16T12:17:38;11.50;99.90
44843;DHT22;31884;52.538;13.820;2023-04-16T12:20:13;11.50;99.90
44843;DHT22;31884;52.538;13.820;2023-04-16T12:22:43;11.60;99.90
44843;DHT22;31884;52.538;13.820;2023-04-16T12:25:13;11.60;99.90
44843;DHT22;31884;52.538;13.820;2023-04-16T12:27:44;11.70;99.90
44843;DHT22;31884;52.538;13.820;2023-04-16T12:30:16;11.80;99.90
44843;DHT22;31884;52.538;13.820;2023-04-16T12:32:44;11.90;99.90
44843;DHT22;31884;52.538;13.820;2023-04-16T12:35:10;11.90;99.90
44843;DHT22;31884;52.538;13.820;2023-04-16T12:37:37;11.80;99.90
44843;DHT22;31884;52.538;13.820;2023-04-16T12:40:03;11.70;99.90
44843;DHT22;31884;52.538;13.820;2023-04-16T12:42:32;11.60;99.90
44843;DHT22;31884;52.538;13.820;2023-04-16T12:45:05;11.50;99.90
44843;DHT22;31884;52.538;13.820;2023-04-16T12:47:31;11.70;99.90
44843;DHT22;31884;52.538;13.820;2023-04-16T12:49:57;11.70;99.90
44843;DHT22;31884;52.538;13.820;2023-04-16T12:52:24;11.60;99.90
44843;DHT22;31884;52.538;13.820;2023-04-16T12:54:50;11.60;99.90
44843;DHT22;31884;52.538;13.820;2023-04-16T12:57:15;11.60;99.90
44843;DHT22;31884;52.538;13.820;2023-04-16T12:59:41;11.60;99.90
44843;DHT22;31884;52.538;13.820;2023-04-16T13:02:06;11.60;99.90
44843;DHT22;31884;52.538;13.820;2023-04-16T13:04:32;11.60;99.90
44843;DHT22;31884;52.538;13.820;2023-04-16T13:06:58;11.40;99.90
44843;DHT22;31884;52.538;13.820;2023-04-16T13:09:24;11.50;99.90
44843;DHT22;31884;52.538;13.820;2023-04-16T13:11:50;11.60;99.90
44843;DHT22;31884;52.538;13.820;2023-04-16T13:14:15;11.70;99.90
44843;DHT22;31884;52.538;13.820;2023-04-16T13:16:41;11.70;99.90
44843;DHT22;31884;52.538;13.820;2023-04-16T13:19:06;11.60;99.90
44843;DHT22;31884;52.538;13.820;2023-04-16T13:21:32;11.50;99.90
44843;DHT22;31884;52.538;13.820;2023-04-16T13:23:58;11.40;99.90
44843;DHT22;31884;52.538;13.820;2023-04-16T13:26:24;11.30;99.90
44843;DHT22;31884;52.538;13.820;2023-04-16T13:28:50;11.30;99.90
44843;DHT22;31884;52.538;13.820;2023-04-16T13:31:15;11.20;99.90
44843;DHT22;31884;52.538;13.820;2023-04-16T13:33:44;11.10;99.90
44843;DHT22;31884;52.538;13.820;2023-04-16T13:36:09;11.00;99.90
44843;DHT22;31884;52.538;13.820;2023-04-16T13:38:35;11.10;99.90
44843;DHT22;31884;52.538;13.820;2023-04-16T13:41:00;11.10;99.90
44843;DHT22;31884;52.538;13.820;2023-04-16T13:43:26;11.00;99.90
44843;DHT22;31884;52.538;13.820;2023-04-16T13:45:51;11.00;99.90
44843;DHT22;31884;52.538;13.820;2023-04-16T13:48:17;11.00;99.90
44843;DHT22;31884;52.538;13.820;2023-04-16T13:50:42;11.00;99.90
44843;DHT22;31884;52.538;13.820;2023-04-16T13:53:08;11.10;99.90
44843;DHT22;31884;52.538;13.820;2023-04-16T13:55:33;11.10;99.90
44843;DHT22;31884;52.538;13.820;2023-04-16T13:58:00;11.20;99.90
44843;DHT22;31884;52.538;13.820;2023-04-16T14:00:25;11.20;99.90
44843;DHT22;31884;52.538;13.820;2023-04-16T14:02:52;11.30;99.90
44843;DHT22;31884;52.538;13.820;2023-04-16T14:05:17;11.30;99.90
44843;DHT22;31884;52.538;13.820;2023-04-16T14:07:44;11.40;99.90
44843;DHT22;31884;52.538;13.820;2023-04-16T14:10:09;11.50;99.90
44843;DHT22;31884;52.538;13.820;2023-04-16T14:12:35;11.50;99.90
44843;DHT22;31884;52.538;13.820;2023-04-16T14:15:02;11.60;99.90
44843;DHT22;31884;52.538;13.820;2023-04-16T14:17:28;11.50;99.90
44843;DHT22;31884;52.538;13.820;2023-04-16T14:19:54;11.40;99.90
44843;DHT22;31884;52.538;13.820;2023-04-16T14:22:19;11.40;99.90
44843;DHT22;31884;52.538;13.820;2023-04-16T14:24:45;11.40;99.90
44843;DHT22;31884;52.538;13.820;2023-04-16T14:27:10;11.40;99.90
44843;DHT22;31884;52.538;13.820;2023-04-16T14:29:36;11.40;99.90
44843;DHT22;31884;52.538;13.820;2023-04-16T14:32:02;11.50;99.90
44843;DHT22;31884;52.538;13.820;2023-04-16T14:34:27;11.50;99.90
44843;DHT22;31884;52.538;13.820;2023-04-16T14:36:53;11.50;99.90
44843;DHT22;31884;52.538;13.820;2023-04-16T14:39:19;11.50;99.90
44843;DHT22;31884;52.538;13.820;2023-04-16T14:41:45;11.50;99.90
44843;DHT22;31884;52.538;13.820;2023-04-16T14:44:10;11.40;99.90
44843;DHT22;31884;52.538;13.820;2023-04-16T14:46:36;11.40;99.90
44843;DHT22;31884;52.538;13.820;2023-04-16T14:49:03;11.40;99.90
44843;DHT22;31884;52.538;13.820;2023-04-16T14:51:29;11.30;99.90
44843;DHT22;31884;52.538;13.820;2023-04-16T14:53:56;11.40;99.90
44843;DHT22;31884;52.538;13.820;2023-04-16T14:56:21;11.20;99.90
44843;DHT22;31884;52.538;13.820;2023-04-16T14:58:47;11.30;99.90
44843;DHT22;31884;52.538;13.820;2023-04-16T15:01:12;11.30;99.90
44843;DHT22;31884;52.538;13.820;2023-04-16T15:03:39;11.30;99.90
44843;DHT22;31884;52.538;13.820;2023-04-16T15:06:04;11.30;99.90
44843;DHT22;31884;52.538;13.820;2023-04-16T15:08:30;11.20;99.90
44843;DHT22;31884;52.538;13.820;2023-04-16T15:10:55;11.40;99.90
44843;DHT22;31884;52.538;13.820;2023-04-16T15:13:21;11.40;99.90
44843;DHT22;31884;52.538;13.820;2023-04-16T15:15:46;11.30;99.90
44843;DHT22;31884;52.538;13.820;2023-04-16T15:18:12;11.30;99.90
44843;DHT22;31884;52.538;13.820;2023-04-16T15:20:37;11.30;99.90
44843;DHT22;31884;52.538;13.820;2023-04-16T15:23:03;11.40;99.90